Time;durP1;ratioP1;P1;durP2;ratioP2;P2;SDS_P1;SDS_P2;PMS_P1;PMS_P2;Temp;Humidity;BMP_temperature;BMP_pressure;BME280_temperature;BME280_humidity;BME280_pressure;Samples;Min_cycle;Max_cycle;Signal;HPM_P1;HPM_P2
2022/09/23 00:02:11;;;;;;;9.27;6.50;;;16.40;58.20;;;;;;5017081;28;20762;-95
2022/09/23 00:04:40;;;;;;;10.27;6.83;;;16.40;58.20;;;;;;5016046;28;20266;-93
2022/09/23 00:09:59;;;;;;;14.43;7.30;;;16.30;58.40;;;;;;5034833;23;20235;-94
2022/09/23 00:15:10;;;;;;;13.93;8.40;;;16.30;58.20;;;;;;4995013;28;20320;-93
2022/09/23 00:20:19;;;;;;;12.60;7.43;;;16.20;58.20;;;;;;5030724;28;20220;-93
2022/09/23 00:25:30;;;;;;;7.17;6.07;;;16.20;58.40;;;;;;5140454;22;20325;-93
2022/09/23 00:28:07;;;;;;;11.33;7.60;;;16.10;58.60;;;;;;5056559;28;20705;-94
2022/09/23 00:30:35;;;;;;;9.57;6.83;;;16.10;58.50;;;;;;5056210;28;20242;-93
2022/09/23 00:33:02;;;;;;;19.37;9.27;;;16.10;58.50;;;;;;5054430;28;20302;-93
2022/09/23 00:35:29;;;;;;;8.50;6.33;;;16.00;58.50;;;;;;5055301;28;20251;-93
2022/09/23 00:37:59;;;;;;;10.00;6.23;;;16.00;58.50;;;;;;5061601;28;20204;-94
2022/09/23 00:40:26;;;;;;;9.27;6.53;;;16.00;58.70;;;;;;5058275;28;20200;-93
2022/09/23 00:42:55;;;;;;;10.80;7.37;;;16.00;58.60;;;;;;5057794;28;20716;-92
2022/09/23 00:45:23;;;;;;;10.83;7.37;;;15.90;58.80;;;;;;5057044;28;20208;-93
2022/09/23 00:47:56;;;;;;;10.47;6.93;;;15.90;58.80;;;;;;5055448;28;20295;-93
2022/09/23 00:50:30;;;;;;;15.77;8.10;;;15.90;59.00;;;;;;5056670;28;20208;-94
2022/09/23 00:53:01;;;;;;;9.00;6.23;;;15.80;59.00;;;;;;5055856;28;20228;-92
2022/09/23 00:56:00;;;;;;;8.07;6.30;;;15.80;58.80;;;;;;5056509;28;20228;-93
2022/09/23 00:58:38;;;;;;;14.37;7.60;;;15.70;58.80;;;;;;5054961;28;20215;-94
2022/09/23 01:01:06;;;;;;;14.17;6.63;;;15.70;58.90;;;;;;5054894;28;20649;-93
2022/09/23 01:03:34;;;;;;;16.23;8.20;;;15.70;58.70;;;;;;5051517;28;21497;-93
2022/09/23 01:06:01;;;;;;;17.97;8.47;;;15.70;58.90;;;;;;5052035;28;20278;-93
2022/09/23 01:08:45;;;;;;;9.80;6.47;;;15.60;58.80;;;;;;5071230;22;20637;-93
2022/09/23 01:11:30;;;;;;;10.90;6.50;;;15.60;59.50;;;;;;5055370;28;20204;-94
2022/09/23 01:17:04;;;;;;;8.97;6.43;;;15.50;59.50;;;;;;5750982;22;20313;-93
2022/09/23 01:20:08;;;;;;;10.43;6.73;;;15.50;59.30;;;;;;5055841;28;20204;-94
2022/09/23 01:22:45;;;;;;;14.40;7.70;;;15.50;59.70;;;;;;5073078;28;20184;-94
2022/09/23 01:25:48;;;;;;;11.63;6.73;;;15.40;59.30;;;;;;5072744;22;20227;-93
2022/09/23 01:28:44;;;;;;;13.93;7.10;;;15.30;59.80;;;;;;5060592;28;20218;-94
2022/09/23 01:31:23;;;;;;;12.77;7.43;;;15.30;59.80;;;;;;5042093;28;20287;-94
2022/09/23 01:34:00;;;;;;;11.23;6.80;;;15.30;59.70;;;;;;5036431;28;20193;-93
2022/09/23 01:36:35;;;;;;;14.17;8.13;;;15.30;59.70;;;;;;5051217;28;20227;-93
2022/09/23 01:39:17;;;;;;;14.83;8.03;;;15.30;59.80;;;;;;5055711;28;20233;-93
2022/09/23 01:41:56;;;;;;;16.20;7.57;;;15.20;60.00;;;;;;5073531;28;20199;-94
2022/09/23 01:44:33;;;;;;;12.47;8.27;;;15.20;60.00;;;;;;5071769;28;20211;-93
2022/09/23 01:47:11;;;;;;;7.77;6.00;;;15.20;59.90;;;;;;5069793;28;20219;-93
2022/09/23 01:49:44;;;;;;;9.30;6.63;;;15.20;59.90;;;;;;5037293;28;20207;-94
2022/09/23 01:52:18;;;;;;;10.50;7.40;;;15.20;59.90;;;;;;5048375;28;20227;-94
2022/09/23 01:54:52;;;;;;;10.57;6.90;;;15.20;60.00;;;;;;5055897;28;20609;-93
2022/09/23 02:00:45;;;;;;;11.47;7.07;;;15.20;61.00;;;;;;5025724;28;20307;-93
2022/09/23 02:03:28;;;;;;;12.30;7.27;;;15.20;60.40;;;;;;5041202;28;20212;-93
2022/09/23 02:06:02;;;;;;;12.83;7.07;;;15.20;61.00;;;;;;5055311;28;20199;-93
2022/09/23 02:08:59;;;;;;;13.77;8.07;;;15.10;60.40;;;;;;5055186;28;20649;-94
2022/09/23 02:11:46;;;;;;;26.77;11.13;;;15.10;60.80;;;;;;5015891;28;20263;-94
2022/09/23 02:14:58;;;;;;;12.87;7.60;;;15.20;60.80;;;;;;5034540;28;20236;-94
2022/09/23 02:17:34;;;;;;;18.90;8.50;;;15.10;60.70;;;;;;5034109;28;20527;-94
2022/09/23 02:20:07;;;;;;;16.53;8.03;;;15.20;60.60;;;;;;5054571;28;20218;-94
2022/09/23 02:22:42;;;;;;;10.03;6.97;;;15.10;60.40;;;;;;5054243;28;20200;-95
2022/09/23 02:25:40;;;;;;;14.67;8.03;;;15.10;60.40;;;;;;5055266;28;20230;-96
2022/09/23 02:28:18;;;;;;;12.40;7.70;;;15.10;61.10;;;;;;5054435;28;20276;-93
2022/09/23 02:31:23;;;;;;;20.37;9.33;;;15.10;60.40;;;;;;5054966;28;20576;-93
2022/09/23 02:33:57;;;;;;;14.30;7.23;;;15.10;61.10;;;;;;5049506;28;20200;-92
2022/09/23 02:36:35;;;;;;;16.47;8.57;;;15.10;60.50;;;;;;5052486;28;20239;-94
2022/09/23 02:50:23;;;;;;;9.80;7.03;;;15.00;61.10;;;;;;5017849;28;20218;-93
2022/09/23 02:52:55;;;;;;;14.17;8.60;;;15.00;60.80;;;;;;4999490;28;20208;-94
2022/09/23 02:55:48;;;;;;;12.53;7.40;;;15.10;61.10;;;;;;4999065;28;20230;-94
2022/09/23 03:05:00;;;;;;;16.67;8.67;;;15.00;61.30;;;;;;4985416;28;20204;-93
2022/09/23 03:11:20;;;;;;;15.30;8.40;;;15.00;61.30;;;;;;4995282;28;20293;-93
2022/09/23 03:14:05;;;;;;;13.70;8.10;;;15.00;61.30;;;;;;5007828;28;20294;-93
2022/09/23 03:16:42;;;;;;;11.13;7.60;;;15.00;61.30;;;;;;5017663;28;20308;-92
2022/09/23 03:19:22;;;;;;;10.03;7.03;;;15.00;61.30;;;;;;5017147;28;20217;-94
2022/09/23 03:21:56;;;;;;;11.87;7.57;;;14.90;61.80;;;;;;5017946;28;20225;-94
2022/09/23 03:24:26;;;;;;;8.17;6.37;;;14.90;61.60;;;;;;5017523;28;20240;-93
2022/09/23 03:26:59;;;;;;;17.00;9.00;;;14.90;61.60;;;;;;5011490;28;20635;-95
2022/09/23 03:29:27;;;;;;;13.47;7.53;;;14.90;62.00;;;;;;5018055;28;20241;-95
2022/09/23 03:31:58;;;;;;;13.13;7.60;;;14.90;61.90;;;;;;5005817;28;20260;-95
2022/09/23 03:34:31;;;;;;;9.20;6.57;;;14.90;62.20;;;;;;4998252;28;20658;-92
2022/09/23 03:37:06;;;;;;;16.33;8.23;;;14.90;62.20;;;;;;5007078;28;20236;-92
2022/09/23 03:39:40;;;;;;;15.10;8.47;;;14.90;62.20;;;;;;5016177;28;20201;-94
2022/09/23 03:42:15;;;;;;;17.30;8.70;;;15.00;62.90;;;;;;5010685;28;20600;-93
2022/09/23 03:44:44;;;;;;;9.53;6.73;;;15.00;62.40;;;;;;5011785;28;20235;-93
2022/09/23 03:47:23;;;;;;;16.23;8.27;;;15.00;62.00;;;;;;5018023;28;20228;-93
2022/09/23 03:49:51;;;;;;;16.47;8.70;;;15.00;62.00;;;;;;5016051;28;20220;-92
2022/09/23 03:52:27;;;;;;;11.90;7.07;;;15.00;62.00;;;;;;5002910;28;20205;-91
2022/09/23 03:54:54;;;;;;;13.77;7.40;;;15.00;62.60;;;;;;5014254;28;20211;-93
2022/09/23 03:57:24;;;;;;;12.97;7.33;;;15.00;62.20;;;;;;5010992;28;20737;-93
2022/09/23 03:59:54;;;;;;;15.77;8.07;;;15.00;62.20;;;;;;5023386;28;20220;-93
2022/09/23 04:02:22;;;;;;;12.47;7.80;;;15.00;62.10;;;;;;5016530;28;20212;-93
2022/09/23 04:04:52;;;;;;;16.87;8.27;;;15.00;61.80;;;;;;5014360;28;20225;-94
2022/09/23 04:07:20;;;;;;;16.00;8.83;;;15.00;62.00;;;;;;5017118;28;20260;-93
2022/09/23 04:13:08;;;;;;;15.50;8.47;;;15.00;62.60;;;;;;5031519;28;20244;-93
2022/09/23 04:15:35;;;;;;;11.97;7.57;;;15.00;61.80;;;;;;5030984;28;20229;-93
2022/09/23 04:18:02;;;;;;;18.70;8.70;;;15.00;61.70;;;;;;5023339;28;20295;-93
2022/09/23 04:20:32;;;;;;;13.97;7.87;;;15.00;61.80;;;;;;5023294;28;20202;-93
2022/09/23 04:23:01;;;;;;;14.30;8.27;;;15.00;62.10;;;;;;5009909;28;20211;-94
2022/09/23 04:25:30;;;;;;;11.87;7.07;;;14.90;62.10;;;;;;5015765;28;20292;-93
2022/09/23 04:30:43;;;;;;;19.83;9.97;;;14.90;62.10;;;;;;5024693;28;20199;-93
2022/09/23 04:33:11;;;;;;;13.97;8.23;;;14.90;62.40;;;;;;5028152;28;20254;-93
2022/09/23 04:38:28;;;;;;;15.13;8.07;;;14.90;62.60;;;;;;4998745;28;20216;-93
2022/09/23 04:41:06;;;;;;;9.53;7.50;;;14.90;62.80;;;;;;5014467;28;20228;-94
2022/09/23 04:43:39;;;;;;;16.93;8.30;;;14.90;62.90;;;;;;5015989;28;20259;-93
2022/09/23 04:46:26;;;;;;;12.00;7.73;;;14.90;63.10;;;;;;5016207;28;20240;-94
2022/09/23 04:49:03;;;;;;;;;;;;;;;;;;;;;
2022/09/23 04:51:31;;;;;;;16.30;8.50;;;14.80;62.80;;;;;;5015318;28;20204;-94
2022/09/23 04:54:22;;;;;;;22.43;10.57;;;14.90;62.90;;;;;;5015646;28;20251;-93
2022/09/23 04:57:10;;;;;;;18.00;9.73;;;14.90;63.10;;;;;;4995710;28;20325;-93
2022/09/23 04:59:37;;;;;;;24.47;10.97;;;14.90;63.20;;;;;;5010898;28;20276;-95
2022/09/23 05:02:05;;;;;;;16.40;9.47;;;14.90;62.70;;;;;;5012822;28;20216;-94
2022/09/23 05:04:34;;;;;;;19.67;9.10;;;14.80;62.80;;;;;;5014941;28;20263;-92
2022/09/23 05:07:01;;;;;;;14.90;8.57;;;14.90;63.00;;;;;;5015227;28;20212;-94
2022/09/23 05:09:28;;;;;;;13.23;8.33;;;14.90;63.10;;;;;;5015620;28;20301;-95
2022/09/23 05:12:23;;;;;;;13.23;8.87;;;14.90;63.10;;;;;;5014713;28;20641;-91
2022/09/23 05:14:51;;;;;;;10.70;8.53;;;14.90;63.80;;;;;;5004484;28;20221;-92
2022/09/23 05:17:21;;;;;;;18.23;9.73;;;14.90;63.10;;;;;;5009928;28;20327;-91
2022/09/23 05:19:48;;;;;;;11.33;7.87;;;14.90;64.10;;;;;;5015103;28;20647;-95
2022/09/23 05:22:16;;;;;;;14.07;8.40;;;14.90;63.10;;;;;;5014718;28;20698;-93
2022/09/23 05:24:43;;;;;;;17.17;9.10;;;14.90;63.30;;;;;;5010227;28;20229;-93
2022/09/23 05:30:01;;;;;;;59.40;18.47;;;15.00;64.00;;;;;;6014302;23;20254;-94
2022/09/23 05:32:31;;;;;;;16.37;9.00;;;14.90;63.10;;;;;;5054743;28;20210;-93
2022/09/23 05:35:12;;;;;;;16.57;8.67;;;15.00;63.30;;;;;;5057720;28;20196;-93
2022/09/23 05:37:39;;;;;;;18.47;9.27;;;15.00;63.70;;;;;;5057952;28;20239;-93
2022/09/23 05:40:07;;;;;;;16.13;8.33;;;14.90;63.10;;;;;;5057366;28;20227;-93
2022/09/23 05:42:35;;;;;;;15.37;8.87;;;15.00;63.30;;;;;;5055934;28;20203;-94
2022/09/23 05:45:02;;;;;;;17.13;9.03;;;15.00;63.30;;;;;;5053672;28;20208;-92
2022/09/23 05:47:35;;;;;;;17.87;8.80;;;15.00;63.20;;;;;;5051098;28;20601;-93
2022/09/23 05:53:12;;;;;;;12.93;8.13;;;15.00;63.40;;;;;;5008440;28;20204;-94
2022/09/23 05:58:55;;;;;;;20.73;8.53;;;15.00;63.40;;;;;;5053986;28;20215;-93
2022/09/23 06:01:30;;;;;;;14.83;8.63;;;15.00;63.90;;;;;;5055005;28;20307;-94
2022/09/23 06:04:02;;;;;;;17.50;10.03;;;15.00;63.50;;;;;;5056672;28;20533;-94
2022/09/23 06:06:33;;;;;;;13.73;9.53;;;15.00;63.50;;;;;;5055636;28;20207;-92
2022/09/23 06:09:02;;;;;;;18.67;10.90;;;15.00;63.50;;;;;;5052888;28;20200;-91
2022/09/23 06:11:38;;;;;;;16.47;9.97;;;15.00;63.60;;;;;;5034826;28;20224;-94
2022/09/23 06:14:08;;;;;;;14.33;9.30;;;15.00;63.60;;;;;;5038908;28;20265;-92
2022/09/23 06:16:41;;;;;;;14.73;9.20;;;15.00;63.50;;;;;;5054435;28;20822;-93
2022/09/23 06:19:16;;;;;;;17.10;9.37;;;15.10;63.60;;;;;;5057654;28;20660;-92
2022/09/23 06:21:44;;;;;;;11.30;7.83;;;15.10;63.50;;;;;;5059421;28;20202;-94
2022/09/23 06:24:37;;;;;;;15.33;8.60;;;15.10;63.30;;;;;;5062498;28;20207;-93
2022/09/23 06:27:06;;;;;;;17.53;9.57;;;15.10;63.70;;;;;;5048413;28;20664;-92
2022/09/23 06:29:35;;;;;;;11.70;7.63;;;15.10;63.30;;;;;;5061808;28;20205;-92
2022/09/23 06:32:03;;;;;;;15.03;8.67;;;15.20;63.40;;;;;;5057411;28;20275;-92
2022/09/23 06:34:44;;;;;;;18.13;9.50;;;15.20;63.40;;;;;;5061869;28;20216;-92
2022/09/23 06:37:11;;;;;;;11.03;7.97;;;15.20;63.50;;;;;;5058343;28;20284;-93
2022/09/23 06:39:39;;;;;;;12.20;8.50;;;15.20;64.10;;;;;;5060223;28;20230;-93
2022/09/23 06:42:09;;;;;;;17.87;9.63;;;15.30;63.50;;;;;;5056964;28;20271;-91
2022/09/23 06:44:36;;;;;;;24.67;11.00;;;15.30;63.50;;;;;;5055689;28;20295;-92
2022/09/23 06:47:04;;;;;;;14.13;9.20;;;15.30;63.40;;;;;;5056799;28;20286;-92
2022/09/23 06:49:34;;;;;;;13.73;8.43;;;15.30;63.50;;;;;;5057255;28;20336;-91
2022/09/23 06:52:05;;;;;;;19.47;9.57;;;15.30;63.60;;;;;;5056886;28;20227;-91
2022/09/23 06:54:32;;;;;;;14.67;9.50;;;15.40;63.60;;;;;;5057431;28;20204;-93
2022/09/23 06:57:00;;;;;;;15.73;9.53;;;15.40;63.60;;;;;;5070554;28;20234;-94
2022/09/23 06:59:29;;;;;;;14.20;9.07;;;15.40;63.60;;;;;;5068933;28;20200;-92
2022/09/23 07:01:59;;;;;;;17.33;8.80;;;15.50;63.80;;;;;;5070304;28;20234;-94
2022/09/23 07:04:29;;;;;;;14.83;8.60;;;15.50;64.00;;;;;;5070535;28;20210;-92
2022/09/23 07:07:02;;;;;;;19.90;9.53;;;15.50;63.70;;;;;;5057951;28;20201;-92
2022/09/23 07:09:37;;;;;;;16.03;8.93;;;15.60;64.10;;;;;;5054940;28;20250;-92
2022/09/23 07:12:05;;;;;;;16.40;8.77;;;15.60;64.20;;;;;;5048760;28;20320;-93
2022/09/23 07:17:32;;;;;;;21.90;10.40;;;15.70;64.10;;;;;;5057819;28;20210;-92
2022/09/23 07:22:35;;;;;;;17.97;9.17;;;15.70;64.00;;;;;;5062741;22;20229;-92
2022/09/23 07:25:02;;;;;;;18.93;9.03;;;15.80;64.50;;;;;;5054366;28;20205;-93
2022/09/23 07:27:29;;;;;;;15.23;8.90;;;15.80;64.10;;;;;;5052772;28;20191;-93
2022/09/23 07:29:56;;;;;;;18.33;9.17;;;15.80;64.20;;;;;;5044532;28;20220;-93
2022/09/23 07:32:41;;;;;;;14.20;8.13;;;15.90;64.50;;;;;;5023943;28;20217;-93
2022/09/23 07:35:39;;;;;;;13.17;8.53;;;15.90;65.10;;;;;;5017923;28;20210;-93
2022/09/23 07:38:08;;;;;;;13.13;7.90;;;15.90;64.60;;;;;;5020680;28;20228;-93
2022/09/23 07:40:38;;;;;;;14.43;8.27;;;16.10;64.90;;;;;;5036713;28;20225;-92
2022/09/23 07:43:06;;;;;;;15.47;7.90;;;16.10;65.20;;;;;;5035826;28;20235;-93
2022/09/23 07:45:38;;;;;;;13.73;8.13;;;16.10;66.10;;;;;;5037441;28;20243;-92
2022/09/23 07:50:59;;;;;;;21.33;9.90;;;16.30;65.70;;;;;;5052489;28;20205;-93
2022/09/23 07:53:32;;;;;;;13.63;8.40;;;16.30;65.10;;;;;;5048086;28;20221;-92
2022/09/23 07:55:59;;;;;;;10.83;7.83;;;16.40;65.60;;;;;;5058636;22;20251;-91
2022/09/23 07:58:26;;;;;;;12.37;8.30;;;16.50;65.50;;;;;;5039886;28;20239;-91
2022/09/23 08:01:24;;;;;;;11.53;8.03;;;16.60;65.60;;;;;;5036945;28;20234;-92
2022/09/23 08:03:56;;;;;;;13.30;7.90;;;16.60;66.40;;;;;;5036075;28;20232;-91
2022/09/23 08:06:36;;;;;;;16.93;8.90;;;16.70;65.70;;;;;;5035394;28;20229;-91
2022/09/23 08:09:31;;;;;;;14.93;8.83;;;16.80;65.70;;;;;;5034761;28;20218;-90
2022/09/23 08:11:59;;;;;;;15.23;9.27;;;16.90;66.00;;;;;;5022536;28;20347;-91
2022/09/23 08:14:54;;;;;;;16.80;8.20;;;17.00;65.40;;;;;;5017889;28;20644;-93
2022/09/23 08:17:51;;;;;;;13.87;8.33;;;17.10;65.50;;;;;;5036755;28;20229;-92
2022/09/23 08:23:13;;;;;;;17.87;8.83;;;17.30;65.10;;;;;;5034707;28;20212;-95
2022/09/23 08:25:44;;;;;;;15.77;9.00;;;17.40;65.30;;;;;;5015774;28;20677;-93
2022/09/23 08:28:15;;;;;;;20.13;10.37;;;17.40;65.10;;;;;;5014705;28;20814;-92
2022/09/23 08:30:49;;;;;;;15.53;8.60;;;17.50;65.30;;;;;;5033106;28;20258;-93
2022/09/23 08:33:17;;;;;;;13.63;8.67;;;17.60;65.40;;;;;;5046747;28;20200;-92
2022/09/23 08:35:44;;;;;;;18.43;8.43;;;17.60;64.90;;;;;;5045833;28;20651;-92
2022/09/23 08:38:11;;;;;;;17.17;8.87;;;17.70;64.90;;;;;;5051033;28;20254;-94
2022/09/23 08:40:43;;;;;;;19.80;10.00;;;17.80;65.00;;;;;;5047008;28;21130;-94
2022/09/23 08:43:21;;;;;;;17.20;8.93;;;17.90;65.10;;;;;;5040824;28;20242;-92
2022/09/23 08:45:52;;;;;;;18.73;9.63;;;18.00;65.20;;;;;;5038494;28;20201;-93
2022/09/23 08:48:28;;;;;;;18.27;8.07;;;18.10;65.10;;;;;;5041156;28;20192;-92
2022/09/23 08:51:19;;;;;;;17.17;8.80;;;18.20;65.20;;;;;;5040940;28;20209;-93
2022/09/23 08:54:03;;;;;;;14.93;8.17;;;18.30;65.10;;;;;;5043545;28;20604;-92
2022/09/23 08:56:35;;;;;;;16.20;7.90;;;18.40;65.30;;;;;;5037745;28;20223;-92
2022/09/23 08:59:16;;;;;;;14.63;8.20;;;18.50;65.00;;;;;;5041153;28;20204;-93
2022/09/23 09:02:37;;;;;;;17.10;8.77;;;18.60;65.00;;;;;;5041962;28;20238;-92
2022/09/23 09:09:05;;;;;;;16.00;7.40;;;18.80;65.10;;;;;;5035192;28;20240;-92
2022/09/23 09:11:38;;;;;;;11.63;6.50;;;18.90;64.50;;;;;;5035726;28;20220;-92
2022/09/23 09:17:12;;;;;;;10.20;7.27;;;19.10;64.50;;;;;;5042499;28;20233;-94
2022/09/23 09:20:23;;;;;;;13.60;7.80;;;19.20;64.50;;;;;;5026849;28;20192;-96
2022/09/23 09:23:22;;;;;;;16.10;7.77;;;19.20;64.40;;;;;;5047530;28;20208;-94
2022/09/23 09:26:07;;;;;;;11.90;7.50;;;19.30;64.10;;;;;;5043038;28;20205;-92
2022/09/23 09:28:50;;;;;;;16.17;8.20;;;19.40;64.20;;;;;;5048351;28;20653;-94
2022/09/23 09:31:28;;;;;;;13.73;7.27;;;19.50;64.30;;;;;;5050132;28;20218;-94
2022/09/23 09:34:04;;;;;;;10.20;7.70;;;19.50;64.10;;;;;;5046178;28;20688;-93
2022/09/23 09:39:25;;;;;;;14.47;7.27;;;19.60;63.80;;;;;;5049252;28;20696;-93
2022/09/23 09:41:58;;;;;;;14.47;7.63;;;19.70;63.70;;;;;;5041431;28;20212;-92
2022/09/23 09:44:34;;;;;;;16.87;7.43;;;19.80;63.70;;;;;;5047741;28;20466;-93
2022/09/23 09:47:27;;;;;;;15.53;8.10;;;19.80;63.30;;;;;;5050034;28;20271;-91
2022/09/23 09:50:03;;;;;;;9.33;6.67;;;19.90;63.30;;;;;;5043804;28;20204;-95
2022/09/23 09:52:32;;;;;;;12.90;6.90;;;19.90;63.10;;;;;;5040883;28;20261;-93
2022/09/23 09:55:25;;;;;;;15.00;7.57;;;20.00;63.40;;;;;;5038460;28;20196;-95
2022/09/23 09:58:00;;;;;;;13.53;6.40;;;20.10;63.60;;;;;;5021139;28;20228;-95
2022/09/23 10:00:49;;;;;;;10.97;6.40;;;20.10;63.50;;;;;;5045583;28;20287;-94
2022/09/23 10:03:31;;;;;;;12.33;6.87;;;20.20;63.60;;;;;;5047229;28;20208;-94
2022/09/23 10:05:58;;;;;;;14.50;8.23;;;20.30;63.50;;;;;;5060802;28;20196;-94
2022/09/23 10:08:59;;;;;;;7.77;6.33;;;20.30;63.50;;;;;;5055429;28;20732;-92
2022/09/23 10:11:33;;;;;;;9.67;6.00;;;20.40;63.40;;;;;;5031674;28;20224;-94
2022/09/23 10:14:11;;;;;;;11.63;6.47;;;20.50;63.40;;;;;;5041083;28;20199;-93
2022/09/23 10:16:42;;;;;;;13.63;8.03;;;20.50;63.10;;;;;;5043132;28;20231;-95
2022/09/23 10:19:40;;;;;;;10.27;6.63;;;20.60;63.20;;;;;;5043346;28;20224;-94
2022/09/23 10:22:22;;;;;;;11.10;6.37;;;20.60;63.00;;;;;;5025486;28;20202;-91
2022/09/23 10:24:54;;;;;;;13.77;6.67;;;20.70;63.10;;;;;;5023373;28;21056;-93
2022/09/23 10:27:34;;;;;;;10.00;6.13;;;20.70;63.30;;;;;;5043332;28;20249;-96
2022/09/23 10:30:20;;;;;;;10.37;6.10;;;20.80;63.10;;;;;;5024719;28;20209;-95
2022/09/23 10:32:57;;;;;;;13.80;6.63;;;20.90;63.10;;;;;;5041878;28;20208;-93
2022/09/23 10:35:27;;;;;;;7.70;5.37;;;20.90;62.80;;;;;;5040240;28;20256;-94
2022/09/23 10:37:56;;;;;;;10.03;6.87;;;20.90;62.90;;;;;;5039614;28;20316;-95
2022/09/23 10:46:44;;;;;;;10.53;6.67;;;21.00;62.90;;;;;;5024033;28;20212;-95
2022/09/23 10:49:51;;;;;;;13.60;6.37;;;21.10;62.80;;;;;;5038918;28;20212;-94
2022/09/23 10:52:53;;;;;;;10.83;6.33;;;21.10;62.80;;;;;;4972862;28;20209;-96
2022/09/23 10:56:00;;;;;;;12.50;7.03;;;21.10;62.70;;;;;;5038714;28;20201;-96
2022/09/23 10:59:08;;;;;;;20.33;9.30;;;21.10;62.60;;;;;;5048445;28;20201;-95
2022/09/23 11:01:42;;;;;;;13.93;7.50;;;21.10;62.80;;;;;;5033540;28;20213;-95
2022/09/23 11:04:55;;;;;;;10.77;6.60;;;21.10;62.90;;;;;;5045029;28;20203;-95
2022/09/23 11:07:43;;;;;;;12.87;7.37;;;21.10;62.80;;;;;;5051461;22;20244;-94
2022/09/23 11:16:52;;;;;;;9.23;6.43;;;21.20;63.20;;;;;;5017118;28;20216;-91
2022/09/23 11:19:56;;;;;;;9.87;6.97;;;21.20;63.00;;;;;;5066923;28;20257;-96
2022/09/23 11:22:44;;;;;;;10.07;6.63;;;21.30;63.50;;;;;;5066273;28;20233;-95
2022/09/23 11:25:29;;;;;;;10.67;6.80;;;21.30;63.30;;;;;;5074426;28;20198;-94
2022/09/23 11:28:37;;;;;;;15.50;7.70;;;21.30;63.30;;;;;;5073878;28;20192;-92
2022/09/23 11:31:20;;;;;;;9.03;6.10;;;21.40;63.70;;;;;;4986894;28;20214;-94
2022/09/23 11:34:06;;;;;;;12.27;7.30;;;21.40;63.70;;;;;;5067205;28;20181;-91
2022/09/23 11:39:16;;;;;;;14.83;8.20;;;21.40;63.50;;;;;;5927925;22;20259;-92
2022/09/23 11:45:18;;;;;;;13.73;8.10;;;21.60;64.00;;;;;;5057173;28;20204;-92
2022/09/23 11:47:50;;;;;;;9.10;5.60;;;21.60;64.20;;;;;;5060269;28;20259;-95
2022/09/23 11:50:25;;;;;;;14.37;6.97;;;21.70;63.50;;;;;;5060105;28;20274;-91
2022/09/23 11:53:00;;;;;;;10.13;6.20;;;21.70;63.20;;;;;;5059079;28;20237;-92
2022/09/23 11:55:37;;;;;;;6.73;6.03;;;21.70;63.20;;;;;;5058613;28;20238;-93
2022/09/23 11:58:17;;;;;;;12.67;6.77;;;21.80;63.40;;;;;;5058854;28;20684;-92
2022/09/23 12:00:51;;;;;;;7.77;6.10;;;21.80;63.00;;;;;;5062173;28;20254;-94
2022/09/23 12:03:25;;;;;;;9.33;6.07;;;21.80;63.20;;;;;;5062238;28;20221;-92
2022/09/23 12:06:01;;;;;;;10.47;6.47;;;21.90;63.20;;;;;;5063783;28;20204;-93
2022/09/23 12:08:31;;;;;;;11.50;6.63;;;21.90;63.10;;;;;;5063331;28;20214;-93
2022/09/23 12:11:28;;;;;;;9.77;6.17;;;21.90;63.10;;;;;;5046507;28;20641;-93
2022/09/23 12:14:04;;;;;;;8.83;6.00;;;22.00;63.10;;;;;;5063079;28;20200;-93
2022/09/23 12:16:56;;;;;;;12.97;7.07;;;22.00;63.00;;;;;;5058394;28;20232;-93
2022/09/23 12:19:46;;;;;;;8.40;5.97;;;22.00;62.90;;;;;;5058659;28;20228;-92
2022/09/23 12:22:54;;;;;;;11.17;6.53;;;22.10;63.70;;;;;;5058073;28;20196;-92
2022/09/23 12:28:05;;;;;;;11.40;7.53;;;22.20;62.90;;;;;;5246003;22;20249;-92
2022/09/23 12:30:39;;;;;;;8.00;6.17;;;22.20;62.70;;;;;;5060393;28;20204;-92
2022/09/23 12:33:32;;;;;;;16.60;8.83;;;22.30;62.90;;;;;;5074918;28;20213;-92
2022/09/23 12:36:07;;;;;;;9.83;6.47;;;22.40;63.10;;;;;;5065743;28;20196;-93
2022/09/23 12:38:46;;;;;;;9.40;6.47;;;22.30;62.70;;;;;;5047368;28;20268;-93
2022/09/23 12:41:36;;;;;;;9.73;6.00;;;22.40;62.80;;;;;;5041648;28;20212;-94
2022/09/23 12:48:22;;;;;;;10.83;6.47;;;22.50;62.70;;;;;;5047274;28;20236;-96
2022/09/23 12:54:08;;;;;;;20.73;9.87;;;22.60;62.50;;;;;;5270842;22;20225;-93
2022/09/23 13:00:47;;;;;;;12.83;6.40;;;22.60;62.40;;;;;;5025330;28;20709;-93
2022/09/23 13:07:19;;;;;;;12.07;6.13;;;22.70;62.70;;;;;;4958784;29;20288;-94
2022/09/23 13:10:06;;;;;;;6.87;4.73;;;22.70;62.80;;;;;;4929403;29;20235;-94
2022/09/23 13:12:42;;;;;;;11.20;6.10;;;22.80;62.70;;;;;;4924056;29;20238;-96
2022/09/23 13:15:28;;;;;;;18.97;7.30;;;22.80;62.70;;;;;;4983868;28;20631;-93
2022/09/23 13:18:29;;;;;;;10.67;6.03;;;22.90;62.50;;;;;;4999876;28;20680;-92
2022/09/23 13:20:58;;;;;;;9.37;5.83;;;22.90;62.50;;;;;;4945115;28;20217;-94
2022/09/23 13:23:27;;;;;;;11.90;5.70;;;22.90;62.30;;;;;;4998795;28;20217;-94
2022/09/23 13:25:57;;;;;;;5.57;4.53;;;22.90;62.50;;;;;;5001940;28;20260;-92
2022/09/23 13:28:32;;;;;;;7.43;4.80;;;22.90;62.40;;;;;;5001038;28;20202;-94
2022/09/23 13:31:27;;;;;;;18.03;7.73;;;23.00;62.70;;;;;;5002472;28;20212;-93
2022/09/23 13:34:05;;;;;;;7.70;4.77;;;23.00;62.90;;;;;;5008587;28;20210;-96
2022/09/23 13:36:55;;;;;;;9.37;6.00;;;23.00;63.10;;;;;;4983149;28;20202;-93
2022/09/23 13:39:28;;;;;;;7.27;4.90;;;23.10;63.30;;;;;;4998143;28;20231;-92
2022/09/23 13:42:26;;;;;;;11.13;6.03;;;23.10;63.30;;;;;;5001428;28;20199;-92
2022/09/23 13:45:24;;;;;;;10.93;5.43;;;23.10;63.60;;;;;;5005820;28;20273;-94
2022/09/23 13:48:10;;;;;;;8.87;5.30;;;23.10;63.40;;;;;;5002677;28;20221;-94
2022/09/23 13:51:11;;;;;;;10.47;5.63;;;23.00;63.50;;;;;;4987313;28;20225;-92
2022/09/23 13:53:38;;;;;;;7.37;4.40;;;23.00;63.70;;;;;;5001036;28;20202;-93
2022/09/23 13:56:19;;;;;;;7.77;4.27;;;23.00;63.30;;;;;;5000586;28;20237;-96
2022/09/23 13:58:46;;;;;;;9.30;4.77;;;23.00;63.80;;;;;;4998632;28;20660;-92
2022/09/23 14:01:31;;;;;;;8.97;4.47;;;22.90;63.90;;;;;;5001457;28;20206;-94
2022/09/23 14:04:25;;;;;;;9.63;4.70;;;22.90;63.10;;;;;;5002361;28;20213;-94
2022/09/23 14:09:47;;;;;;;8.57;4.63;;;22.70;62.90;;;;;;5000551;28;20205;-94
2022/09/23 14:12:25;;;;;;;8.40;4.63;;;22.70;62.90;;;;;;4999372;28;20225;-95
2022/09/23 14:14:53;;;;;;;10.57;5.90;;;22.70;63.00;;;;;;4991102;28;20321;-91
2022/09/23 14:17:34;;;;;;;6.17;4.50;;;22.60;63.00;;;;;;4992079;28;20213;-92
2022/09/23 14:20:03;;;;;;;8.83;5.27;;;22.50;63.10;;;;;;4977849;28;20229;-90
2022/09/23 14:22:34;;;;;;;9.40;4.60;;;22.60;63.50;;;;;;4990776;28;20206;-89
2022/09/23 14:25:02;;;;;;;11.10;5.93;;;22.60;63.50;;;;;;4989822;28;20646;-90
2022/09/23 14:27:35;;;;;;;11.60;5.60;;;22.50;63.60;;;;;;4992286;28;20205;-92
2022/09/23 14:30:17;;;;;;;11.37;6.03;;;22.50;63.80;;;;;;4991083;28;20731;-90
2022/09/23 14:32:46;;;;;;;10.53;6.00;;;22.50;64.10;;;;;;4992392;28;20257;-91
2022/09/23 14:35:41;;;;;;;11.13;6.33;;;22.50;63.90;;;;;;5009496;28;20300;-92
2022/09/23 14:41:24;;;;;;;11.37;5.77;;;22.40;64.80;;;;;;4977989;28;20204;-92
2022/09/23 14:43:59;;;;;;;8.90;6.90;;;22.40;64.50;;;;;;4975298;28;20617;-91
2022/09/23 14:46:29;;;;;;;12.43;8.00;;;22.40;64.60;;;;;;4976543;28;20195;-92
2022/09/23 14:49:04;;;;;;;12.47;7.47;;;22.30;64.40;;;;;;4977165;28;20203;-92
2022/09/23 14:51:52;;;;;;;13.83;8.73;;;22.30;64.70;;;;;;4977779;28;20189;-91
2022/09/23 14:54:40;;;;;;;12.43;7.97;;;22.30;65.10;;;;;;4983252;28;20213;-92
2022/09/23 14:57:31;;;;;;;10.20;7.37;;;22.30;65.00;;;;;;4983749;28;20206;-91
2022/09/23 15:00:16;;;;;;;11.33;7.30;;;22.20;64.70;;;;;;5012839;28;20249;-92
2022/09/23 15:02:44;;;;;;;17.97;8.67;;;22.20;64.50;;;;;;5014711;28;20193;-91
2022/09/23 15:05:18;;;;;;;11.33;6.63;;;22.20;64.50;;;;;;4983747;28;20192;-93
2022/09/23 15:08:05;;;;;;;10.07;7.27;;;22.20;64.80;;;;;;4998035;28;20210;-91
2022/09/23 15:10:37;;;;;;;11.03;6.87;;;22.10;64.70;;;;;;4998707;28;20227;-92
2022/09/23 15:13:09;;;;;;;10.17;6.47;;;22.10;63.20;;;;;;5000665;28;20196;-91
2022/09/23 15:25:15;;;;;;;10.53;5.37;;;21.70;62.40;;;;;;4989332;28;20577;-94
2022/09/23 15:27:56;;;;;;;9.10;5.23;;;21.60;62.50;;;;;;4996998;28;20420;-92
2022/09/23 15:30:26;;;;;;;8.53;4.80;;;21.50;62.40;;;;;;4996539;28;20296;-90
2022/09/23 15:33:11;;;;;;;9.53;5.43;;;21.40;62.30;;;;;;4998105;28;20228;-92
2022/09/23 15:41:05;;;;;;;12.43;6.83;;;21.10;63.10;;;;;;5053834;28;20697;-93
2022/09/23 15:43:34;;;;;;;6.73;5.33;;;21.00;63.80;;;;;;5049634;28;20752;-94
2022/09/23 15:49:32;;;;;;;13.50;6.63;;;20.80;64.70;;;;;;5039813;28;20289;-93
2022/09/23 15:52:11;;;;;;;11.90;6.83;;;20.80;65.10;;;;;;5039557;28;20266;-95